Airfield :
LOGIN :

Register | Disclaimer

   EN    FR    IT 

 










Legend :    VFR   Marginal VFR   IFR   Intensive IFR   Very Intensive IFR
Visi :
Ceiling :
>= 8 km
>= 3000ft
5 to 8 km
1000 to 3000 ft
1500m to 5 km
500 to 1000 ft
800 to 1500m
200 to 500 ft
< 800m
< 200 ft
Symbols :   Thunderstorms  Fog  Heavy snow  Heavy precipitations  Wind > 20 kt
SIGMETs :     Misc.  Thunderstorms  Icing  Turbulence  Mountain Waves  Volcanic Ashes






- Airport Elevation : 526 ft
- IATA code : LTN


EGGW - London Luton

CURRENT METAR :
  • 250750Z AUTO 23003KT 210V280 3500 HZ OVC006 01/00 Q1033

EXPIRED METARs :
  • 250720Z AUTO VRB02KT 3600 HZ OVC006 01/M00 Q1033
  • 250650Z AUTO VRB02KT 3600 HZ OVC006 01/00 Q1033
  • 250620Z AUTO 25004KT 3600 HZ OVC006 01/M00 Q1033
  • 250550Z AUTO 22003KT 150V260 3700 HZ OVC006 01/00 Q1033
  • 250520Z AUTO 20003KT 120V230 3600 HZ OVC005 01/00 Q1033

TAF TAF EGGW
Valid from the 25 at 06:00 until the 26 at 06:00 UTC


250455Z 2506/2606 28003KT 7000 OVC012
TEMPO 2506/2519 BKN008
PROB40
TEMPO 2506/2511 4000 HZ
PROB40 2511/2517 9999
BECMG 2519/2522 BKN016
PROB30 2521/2606 4000 HZ
ATIS : +44 1582 395 204



MET'MAP, your aeronautical weather chart ! - Copyright ORBIFLY December 2007 - Disclaimer

ORBIFLY MET'MAP TEAM :

Programming & Development : Alexandra Zaïnal
Original concept : Baudouin d'Aumeries
Technical & hardware support : Manuel Goepfert
Assistance : Marc-Olivier Méhu

Contact : metmap@orbifly.com




SOURCES & CREDITS :

   NOAA